sensor_id;sensor_type;location;lat;lon;timestamp;P1;durP1;ratioP1;P2;durP2;ratioP2
1569;SDS011;778;50.120;8.698;2022-11-20T00:01:38;23.27;;;16.23;;
1569;SDS011;778;50.120;8.698;2022-11-20T00:04:07;25.27;;;16.77;;
1569;SDS011;778;50.120;8.698;2022-11-20T00:06:37;28.90;;;17.30;;
1569;SDS011;778;50.120;8.698;2022-11-20T00:09:06;22.00;;;16.30;;
1569;SDS011;778;50.120;8.698;2022-11-20T00:11:37;25.70;;;18.23;;
1569;SDS011;778;50.120;8.698;2022-11-20T00:14:05;21.67;;;17.03;;
1569;SDS011;778;50.120;8.698;2022-11-20T00:16:35;23.70;;;17.53;;
1569;SDS011;778;50.120;8.698;2022-11-20T00:19:04;27.33;;;19.27;;
1569;SDS011;778;50.120;8.698;2022-11-20T00:21:32;23.90;;;16.90;;
1569;SDS011;778;50.120;8.698;2022-11-20T00:24:00;27.17;;;17.70;;
1569;SDS011;778;50.120;8.698;2022-11-20T00:26:29;22.10;;;15.73;;
1569;SDS011;778;50.120;8.698;2022-11-20T00:28:58;20.43;;;16.23;;
1569;SDS011;778;50.120;8.698;2022-11-20T00:31:28;21.00;;;15.90;;
1569;SDS011;778;50.120;8.698;2022-11-20T00:34:00;21.83;;;15.47;;
1569;SDS011;778;50.120;8.698;2022-11-20T00:36:31;24.67;;;17.30;;
1569;SDS011;778;50.120;8.698;2022-11-20T00:39:01;25.37;;;17.63;;
1569;SDS011;778;50.120;8.698;2022-11-20T00:41:30;22.40;;;16.53;;
1569;SDS011;778;50.120;8.698;2022-11-20T00:43:58;23.00;;;17.57;;
1569;SDS011;778;50.120;8.698;2022-11-20T00:46:27;25.30;;;18.10;;
1569;SDS011;778;50.120;8.698;2022-11-20T00:48:56;26.10;;;16.97;;
1569;SDS011;778;50.120;8.698;2022-11-20T00:51:26;21.83;;;16.90;;
1569;SDS011;778;50.120;8.698;2022-11-20T00:53:56;27.13;;;17.33;;
1569;SDS011;778;50.120;8.698;2022-11-20T00:56:26;25.93;;;16.60;;
1569;SDS011;778;50.120;8.698;2022-11-20T00:58:54;23.70;;;17.00;;
1569;SDS011;778;50.120;8.698;2022-11-20T01:01:26;21.57;;;15.47;;
1569;SDS011;778;50.120;8.698;2022-11-20T01:03:58;25.93;;;17.23;;
1569;SDS011;778;50.120;8.698;2022-11-20T01:06:29;23.27;;;17.10;;
1569;SDS011;778;50.120;8.698;2022-11-20T01:09:00;21.47;;;15.63;;
1569;SDS011;778;50.120;8.698;2022-11-20T01:11:32;22.73;;;16.03;;
1569;SDS011;778;50.120;8.698;2022-11-20T01:14:02;23.27;;;16.13;;
1569;SDS011;778;50.120;8.698;2022-11-20T01:16:33;19.87;;;16.43;;
1569;SDS011;778;50.120;8.698;2022-11-20T01:19:04;29.93;;;17.23;;
1569;SDS011;778;50.120;8.698;2022-11-20T01:21:37;22.97;;;17.10;;
1569;SDS011;778;50.120;8.698;2022-11-20T01:24:12;25.63;;;18.60;;
1569;SDS011;778;50.120;8.698;2022-11-20T01:26:43;22.03;;;16.63;;
1569;SDS011;778;50.120;8.698;2022-11-20T01:29:14;25.20;;;18.57;;
1569;SDS011;778;50.120;8.698;2022-11-20T01:31:45;25.90;;;17.73;;
1569;SDS011;778;50.120;8.698;2022-11-20T01:34:14;28.03;;;16.87;;
1569;SDS011;778;50.120;8.698;2022-11-20T01:36:47;25.50;;;18.13;;
1569;SDS011;778;50.120;8.698;2022-11-20T01:39:16;27.80;;;18.67;;
1569;SDS011;778;50.120;8.698;2022-11-20T01:41:48;25.13;;;18.37;;
1569;SDS011;778;50.120;8.698;2022-11-20T01:44:50;26.47;;;17.83;;
1569;SDS011;778;50.120;8.698;2022-11-20T01:47:23;27.23;;;18.60;;
1569;SDS011;778;50.120;8.698;2022-11-20T01:49:59;24.93;;;16.60;;
1569;SDS011;778;50.120;8.698;2022-11-20T01:52:36;25.07;;;18.10;;
1569;SDS011;778;50.120;8.698;2022-11-20T01:55:09;28.80;;;17.70;;
1569;SDS011;778;50.120;8.698;2022-11-20T01:57:43;27.27;;;19.37;;
1569;SDS011;778;50.120;8.698;2022-11-20T02:00:14;27.00;;;19.20;;
1569;SDS011;778;50.120;8.698;2022-11-20T02:02:46;25.47;;;17.57;;
1569;SDS011;778;50.120;8.698;2022-11-20T02:05:20;28.33;;;17.70;;
1569;SDS011;778;50.120;8.698;2022-11-20T02:07:56;23.40;;;16.93;;
1569;SDS011;778;50.120;8.698;2022-11-20T02:10:25;26.10;;;19.33;;
1569;SDS011;778;50.120;8.698;2022-11-20T02:12:55;25.80;;;18.90;;
1569;SDS011;778;50.120;8.698;2022-11-20T02:15:42;26.20;;;17.50;;
1569;SDS011;778;50.120;8.698;2022-11-20T02:18:11;26.03;;;18.53;;
1569;SDS011;778;50.120;8.698;2022-11-20T02:20:44;25.40;;;18.07;;
1569;SDS011;778;50.120;8.698;2022-11-20T02:23:18;29.27;;;20.60;;
1569;SDS011;778;50.120;8.698;2022-11-20T02:25:55;28.47;;;19.53;;
1569;SDS011;778;50.120;8.698;2022-11-20T02:28:25;25.20;;;19.30;;
1569;SDS011;778;50.120;8.698;2022-11-20T02:30:54;29.47;;;21.20;;
1569;SDS011;778;50.120;8.698;2022-11-20T02:33:23;26.13;;;17.90;;
1569;SDS011;778;50.120;8.698;2022-11-20T02:35:51;25.77;;;19.37;;
1569;SDS011;778;50.120;8.698;2022-11-20T02:38:20;29.70;;;20.07;;
1569;SDS011;778;50.120;8.698;2022-11-20T02:40:49;30.00;;;18.57;;
1569;SDS011;778;50.120;8.698;2022-11-20T02:43:22;27.23;;;18.00;;
1569;SDS011;778;50.120;8.698;2022-11-20T02:45:51;27.07;;;19.00;;
1569;SDS011;778;50.120;8.698;2022-11-20T02:48:19;23.17;;;16.63;;
1569;SDS011;778;50.120;8.698;2022-11-20T02:50:50;24.70;;;17.10;;
1569;SDS011;778;50.120;8.698;2022-11-20T02:53:19;25.03;;;17.53;;
1569;SDS011;778;50.120;8.698;2022-11-20T02:55:47;25.17;;;17.60;;
1569;SDS011;778;50.120;8.698;2022-11-20T02:58:15;28.13;;;20.40;;
1569;SDS011;778;50.120;8.698;2022-11-20T03:00:45;25.73;;;17.67;;
1569;SDS011;778;50.120;8.698;2022-11-20T03:03:14;23.53;;;17.77;;
1569;SDS011;778;50.120;8.698;2022-11-20T03:05:42;25.90;;;19.63;;
1569;SDS011;778;50.120;8.698;2022-11-20T03:08:11;26.70;;;18.10;;
1569;SDS011;778;50.120;8.698;2022-11-20T03:10:39;29.00;;;19.90;;
1569;SDS011;778;50.120;8.698;2022-11-20T03:13:07;27.87;;;18.30;;
1569;SDS011;778;50.120;8.698;2022-11-20T03:15:36;24.27;;;19.40;;
1569;SDS011;778;50.120;8.698;2022-11-20T03:18:06;26.80;;;18.90;;
1569;SDS011;778;50.120;8.698;2022-11-20T03:20:34;23.00;;;16.97;;
1569;SDS011;778;50.120;8.698;2022-11-20T03:23:02;26.50;;;19.70;;
1569;SDS011;778;50.120;8.698;2022-11-20T03:25:31;29.17;;;19.40;;
1569;SDS011;778;50.120;8.698;2022-11-20T03:28:00;27.03;;;19.40;;
1569;SDS011;778;50.120;8.698;2022-11-20T03:30:28;26.80;;;19.87;;
1569;SDS011;778;50.120;8.698;2022-11-20T03:32:56;25.03;;;19.20;;
1569;SDS011;778;50.120;8.698;2022-11-20T03:35:26;25.40;;;19.17;;
1569;SDS011;778;50.120;8.698;2022-11-20T03:37:54;25.60;;;18.13;;
1569;SDS011;778;50.120;8.698;2022-11-20T03:40:23;27.30;;;19.03;;
1569;SDS011;778;50.120;8.698;2022-11-20T03:42:51;28.13;;;19.97;;
1569;SDS011;778;50.120;8.698;2022-11-20T03:45:20;25.57;;;18.77;;
1569;SDS011;778;50.120;8.698;2022-11-20T03:47:48;27.77;;;20.23;;
1569;SDS011;778;50.120;8.698;2022-11-20T03:50:17;26.20;;;18.30;;
1569;SDS011;778;50.120;8.698;2022-11-20T03:52:46;26.40;;;18.77;;
1569;SDS011;778;50.120;8.698;2022-11-20T03:55:15;27.63;;;19.10;;
1569;SDS011;778;50.120;8.698;2022-11-20T03:57:43;23.43;;;17.77;;
1569;SDS011;778;50.120;8.698;2022-11-20T04:00:12;30.10;;;20.30;;
1569;SDS011;778;50.120;8.698;2022-11-20T04:02:42;27.40;;;18.50;;
1569;SDS011;778;50.120;8.698;2022-11-20T04:05:10;24.63;;;18.47;;
1569;SDS011;778;50.120;8.698;2022-11-20T04:07:38;26.20;;;18.33;;
1569;SDS011;778;50.120;8.698;2022-11-20T04:10:09;27.33;;;19.20;;
1569;SDS011;778;50.120;8.698;2022-11-20T04:12:37;32.63;;;19.97;;
1569;SDS011;778;50.120;8.698;2022-11-20T04:15:06;25.60;;;18.63;;
1569;SDS011;778;50.120;8.698;2022-11-20T04:17:35;26.33;;;18.20;;
1569;SDS011;778;50.120;8.698;2022-11-20T04:20:04;26.43;;;18.40;;
1569;SDS011;778;50.120;8.698;2022-11-20T04:22:33;29.20;;;19.50;;
1569;SDS011;778;50.120;8.698;2022-11-20T04:25:02;27.40;;;19.70;;
1569;SDS011;778;50.120;8.698;2022-11-20T04:27:33;27.23;;;19.23;;
1569;SDS011;778;50.120;8.698;2022-11-20T04:30:01;28.27;;;19.83;;
1569;SDS011;778;50.120;8.698;2022-11-20T04:32:30;25.60;;;18.00;;
1569;SDS011;778;50.120;8.698;2022-11-20T04:34:59;29.23;;;19.60;;
1569;SDS011;778;50.120;8.698;2022-11-20T04:37:28;29.73;;;19.60;;
1569;SDS011;778;50.120;8.698;2022-11-20T04:39:56;26.23;;;18.47;;
1569;SDS011;778;50.120;8.698;2022-11-20T04:42:24;25.07;;;16.23;;
1569;SDS011;778;50.120;8.698;2022-11-20T04:44:57;26.97;;;18.93;;
1569;SDS011;778;50.120;8.698;2022-11-20T04:47:26;25.40;;;18.43;;
1569;SDS011;778;50.120;8.698;2022-11-20T04:49:54;25.17;;;17.03;;
1569;SDS011;778;50.120;8.698;2022-11-20T04:52:22;26.40;;;18.60;;
1569;SDS011;778;50.120;8.698;2022-11-20T04:54:51;26.30;;;18.97;;
1569;SDS011;778;50.120;8.698;2022-11-20T04:57:20;23.03;;;16.83;;
1569;SDS011;778;50.120;8.698;2022-11-20T04:59:48;28.70;;;18.17;;
1569;SDS011;778;50.120;8.698;2022-11-20T05:02:18;27.17;;;18.80;;
1569;SDS011;778;50.120;8.698;2022-11-20T05:04:47;24.83;;;17.00;;
1569;SDS011;778;50.120;8.698;2022-11-20T05:07:15;29.43;;;19.57;;
1569;SDS011;778;50.120;8.698;2022-11-20T05:09:44;27.73;;;17.80;;
1569;SDS011;778;50.120;8.698;2022-11-20T05:12:12;26.30;;;18.57;;
1569;SDS011;778;50.120;8.698;2022-11-20T05:14:41;25.90;;;18.20;;
1569;SDS011;778;50.120;8.698;2022-11-20T05:17:10;26.57;;;18.90;;
1569;SDS011;778;50.120;8.698;2022-11-20T05:19:40;29.63;;;19.20;;
1569;SDS011;778;50.120;8.698;2022-11-20T05:22:08;32.40;;;19.40;;
1569;SDS011;778;50.120;8.698;2022-11-20T05:24:36;29.20;;;18.33;;
1569;SDS011;778;50.120;8.698;2022-11-20T05:27:05;33.13;;;21.20;;
1569;SDS011;778;50.120;8.698;2022-11-20T05:29:33;30.27;;;19.60;;
1569;SDS011;778;50.120;8.698;2022-11-20T05:32:02;30.70;;;19.73;;
1569;SDS011;778;50.120;8.698;2022-11-20T05:34:32;37.17;;;21.93;;
1569;SDS011;778;50.120;8.698;2022-11-20T05:37:02;32.80;;;20.77;;
1569;SDS011;778;50.120;8.698;2022-11-20T05:39:31;32.43;;;20.53;;
1569;SDS011;778;50.120;8.698;2022-11-20T05:41:59;34.80;;;21.47;;
1569;SDS011;778;50.120;8.698;2022-11-20T05:44:45;37.00;;;22.00;;
1569;SDS011;778;50.120;8.698;2022-11-20T05:47:13;36.63;;;21.37;;
1569;SDS011;778;50.120;8.698;2022-11-20T05:49:41;41.70;;;22.30;;
1569;SDS011;778;50.120;8.698;2022-11-20T05:52:11;40.17;;;23.13;;
1569;SDS011;778;50.120;8.698;2022-11-20T05:54:40;38.10;;;21.80;;
1569;SDS011;778;50.120;8.698;2022-11-20T05:57:08;31.83;;;21.43;;
1569;SDS011;778;50.120;8.698;2022-11-20T05:59:36;28.30;;;19.10;;
1569;SDS011;778;50.120;8.698;2022-11-20T06:02:05;31.57;;;21.13;;
1569;SDS011;778;50.120;8.698;2022-11-20T06:04:33;27.53;;;18.87;;
1569;SDS011;778;50.120;8.698;2022-11-20T06:07:01;32.00;;;20.33;;
1569;SDS011;778;50.120;8.698;2022-11-20T06:09:31;32.83;;;20.93;;
1569;SDS011;778;50.120;8.698;2022-11-20T06:12:00;35.90;;;20.70;;
1569;SDS011;778;50.120;8.698;2022-11-20T06:14:28;34.20;;;21.23;;
1569;SDS011;778;50.120;8.698;2022-11-20T06:16:57;35.30;;;22.20;;
1569;SDS011;778;50.120;8.698;2022-11-20T06:19:25;32.40;;;19.50;;
1569;SDS011;778;50.120;8.698;2022-11-20T06:21:53;37.33;;;21.13;;
1569;SDS011;778;50.120;8.698;2022-11-20T06:24:22;33.27;;;20.30;;
1569;SDS011;778;50.120;8.698;2022-11-20T06:26:53;35.70;;;20.77;;
1569;SDS011;778;50.120;8.698;2022-11-20T06:29:21;35.57;;;21.93;;
1569;SDS011;778;50.120;8.698;2022-11-20T06:31:55;32.07;;;20.90;;
1569;SDS011;778;50.120;8.698;2022-11-20T06:34:26;38.83;;;21.10;;
1569;SDS011;778;50.120;8.698;2022-11-20T06:36:54;35.67;;;21.83;;
1569;SDS011;778;50.120;8.698;2022-11-20T06:39:23;34.10;;;21.20;;
1569;SDS011;778;50.120;8.698;2022-11-20T06:41:53;37.07;;;21.93;;
1569;SDS011;778;50.120;8.698;2022-11-20T06:44:24;49.67;;;22.77;;
1569;SDS011;778;50.120;8.698;2022-11-20T06:46:53;35.77;;;22.40;;
1569;SDS011;778;50.120;8.698;2022-11-20T06:49:21;41.37;;;24.37;;
1569;SDS011;778;50.120;8.698;2022-11-20T06:51:50;39.27;;;21.10;;
1569;SDS011;778;50.120;8.698;2022-11-20T06:54:19;46.13;;;24.10;;
1569;SDS011;778;50.120;8.698;2022-11-20T06:56:47;47.03;;;24.40;;
1569;SDS011;778;50.120;8.698;2022-11-20T06:59:17;42.87;;;22.97;;
1569;SDS011;778;50.120;8.698;2022-11-20T07:01:46;40.77;;;21.27;;
1569;SDS011;778;50.120;8.698;2022-11-20T07:04:14;43.10;;;22.70;;
1569;SDS011;778;50.120;8.698;2022-11-20T07:06:43;37.30;;;21.20;;
1569;SDS011;778;50.120;8.698;2022-11-20T07:09:11;43.00;;;23.20;;
1569;SDS011;778;50.120;8.698;2022-11-20T07:11:40;40.57;;;24.30;;
1569;SDS011;778;50.120;8.698;2022-11-20T07:14:08;44.47;;;22.10;;
1569;SDS011;778;50.120;8.698;2022-11-20T07:16:38;44.43;;;22.77;;
1569;SDS011;778;50.120;8.698;2022-11-20T07:19:06;38.50;;;22.40;;
1569;SDS011;778;50.120;8.698;2022-11-20T07:21:35;41.03;;;21.80;;
1569;SDS011;778;50.120;8.698;2022-11-20T07:24:03;41.03;;;22.00;;
1569;SDS011;778;50.120;8.698;2022-11-20T07:26:32;42.73;;;22.50;;
1569;SDS011;778;50.120;8.698;2022-11-20T07:29:00;40.77;;;22.90;;
1569;SDS011;778;50.120;8.698;2022-11-20T07:31:29;42.97;;;23.27;;
1569;SDS011;778;50.120;8.698;2022-11-20T07:33:59;43.70;;;23.20;;
1569;SDS011;778;50.120;8.698;2022-11-20T07:36:27;44.07;;;23.57;;
1569;SDS011;778;50.120;8.698;2022-11-20T07:38:56;42.33;;;24.00;;
1569;SDS011;778;50.120;8.698;2022-11-20T07:41:24;44.57;;;24.70;;
1569;SDS011;778;50.120;8.698;2022-11-20T07:43:54;43.63;;;22.20;;
1569;SDS011;778;50.120;8.698;2022-11-20T07:46:22;40.23;;;23.77;;
1569;SDS011;778;50.120;8.698;2022-11-20T07:48:51;40.00;;;24.60;;
1569;SDS011;778;50.120;8.698;2022-11-20T07:51:21;42.70;;;24.73;;
1569;SDS011;778;50.120;8.698;2022-11-20T07:53:50;40.33;;;23.57;;
1569;SDS011;778;50.120;8.698;2022-11-20T07:56:19;39.60;;;23.40;;
1569;SDS011;778;50.120;8.698;2022-11-20T07:58:47;43.67;;;22.10;;
1569;SDS011;778;50.120;8.698;2022-11-20T08:01:16;41.20;;;23.57;;
1569;SDS011;778;50.120;8.698;2022-11-20T08:03:44;42.83;;;22.90;;
1569;SDS011;778;50.120;8.698;2022-11-20T08:06:13;40.20;;;23.97;;
1569;SDS011;778;50.120;8.698;2022-11-20T08:08:43;42.30;;;24.37;;
1569;SDS011;778;50.120;8.698;2022-11-20T08:11:11;36.93;;;22.67;;
1569;SDS011;778;50.120;8.698;2022-11-20T08:13:57;44.47;;;23.83;;
1569;SDS011;778;50.120;8.698;2022-11-20T08:16:38;41.10;;;24.20;;
1569;SDS011;778;50.120;8.698;2022-11-20T08:19:07;39.20;;;23.67;;
1569;SDS011;778;50.120;8.698;2022-11-20T08:21:36;47.30;;;26.20;;
1569;SDS011;778;50.120;8.698;2022-11-20T08:24:06;49.90;;;25.03;;
1569;SDS011;778;50.120;8.698;2022-11-20T08:26:36;40.10;;;23.70;;
1569;SDS011;778;50.120;8.698;2022-11-20T08:29:05;42.50;;;22.97;;
1569;SDS011;778;50.120;8.698;2022-11-20T08:31:34;41.77;;;24.37;;
1569;SDS011;778;50.120;8.698;2022-11-20T08:34:03;42.13;;;24.27;;
1569;SDS011;778;50.120;8.698;2022-11-20T08:36:35;43.47;;;24.27;;
1569;SDS011;778;50.120;8.698;2022-11-20T08:39:05;38.40;;;24.43;;
1569;SDS011;778;50.120;8.698;2022-11-20T08:41:33;49.30;;;25.90;;
1569;SDS011;778;50.120;8.698;2022-11-20T08:44:03;41.30;;;24.07;;
1569;SDS011;778;50.120;8.698;2022-11-20T08:46:34;46.87;;;25.80;;
1569;SDS011;778;50.120;8.698;2022-11-20T08:49:06;44.73;;;27.03;;
1569;SDS011;778;50.120;8.698;2022-11-20T08:51:37;44.57;;;24.63;;
1569;SDS011;778;50.120;8.698;2022-11-20T08:54:07;45.07;;;25.60;;
1569;SDS011;778;50.120;8.698;2022-11-20T08:56:36;46.20;;;26.27;;
1569;SDS011;778;50.120;8.698;2022-11-20T08:59:04;46.17;;;24.73;;
1569;SDS011;778;50.120;8.698;2022-11-20T09:01:53;40.40;;;25.37;;
1569;SDS011;778;50.120;8.698;2022-11-20T09:04:21;46.43;;;27.27;;
1569;SDS011;778;50.120;8.698;2022-11-20T09:06:50;45.07;;;25.60;;
1569;SDS011;778;50.120;8.698;2022-11-20T09:09:20;41.10;;;27.40;;
1569;SDS011;778;50.120;8.698;2022-11-20T09:11:49;43.30;;;26.63;;
1569;SDS011;778;50.120;8.698;2022-11-20T09:14:17;51.97;;;29.07;;
1569;SDS011;778;50.120;8.698;2022-11-20T09:16:45;42.77;;;24.03;;
1569;SDS011;778;50.120;8.698;2022-11-20T09:19:14;42.47;;;27.23;;
1569;SDS011;778;50.120;8.698;2022-11-20T09:22:02;39.37;;;24.50;;
1569;SDS011;778;50.120;8.698;2022-11-20T09:24:32;39.57;;;27.30;;
1569;SDS011;778;50.120;8.698;2022-11-20T09:27:01;46.20;;;26.73;;
1569;SDS011;778;50.120;8.698;2022-11-20T09:29:31;42.20;;;26.83;;
1569;SDS011;778;50.120;8.698;2022-11-20T09:32:00;48.53;;;29.70;;
1569;SDS011;778;50.120;8.698;2022-11-20T09:34:28;41.60;;;26.80;;
1569;SDS011;778;50.120;8.698;2022-11-20T09:36:57;42.87;;;25.93;;
1569;SDS011;778;50.120;8.698;2022-11-20T09:39:33;44.73;;;25.57;;
1569;SDS011;778;50.120;8.698;2022-11-20T09:42:09;47.37;;;28.50;;
1569;SDS011;778;50.120;8.698;2022-11-20T09:45:02;47.40;;;28.17;;
1569;SDS011;778;50.120;8.698;2022-11-20T09:47:47;36.43;;;24.77;;
1569;SDS011;778;50.120;8.698;2022-11-20T09:50:32;37.00;;;25.10;;
1569;SDS011;778;50.120;8.698;2022-11-20T09:53:08;38.30;;;25.97;;
1569;SDS011;778;50.120;8.698;2022-11-20T09:55:43;41.13;;;25.60;;
1569;SDS011;778;50.120;8.698;2022-11-20T09:58:15;34.73;;;23.30;;
1569;SDS011;778;50.120;8.698;2022-11-20T10:00:52;35.40;;;26.70;;
1569;SDS011;778;50.120;8.698;2022-11-20T10:03:26;36.80;;;24.20;;
1569;SDS011;778;50.120;8.698;2022-11-20T10:06:05;33.97;;;23.57;;
1569;SDS011;778;50.120;8.698;2022-11-20T10:08:40;31.53;;;22.80;;
1569;SDS011;778;50.120;8.698;2022-11-20T10:11:15;33.30;;;21.80;;
1569;SDS011;778;50.120;8.698;2022-11-20T10:13:54;34.10;;;22.60;;
1569;SDS011;778;50.120;8.698;2022-11-20T10:16:32;32.63;;;21.83;;
1569;SDS011;778;50.120;8.698;2022-11-20T10:19:12;31.23;;;21.87;;
1569;SDS011;778;50.120;8.698;2022-11-20T10:22:04;30.50;;;21.60;;
1569;SDS011;778;50.120;8.698;2022-11-20T10:24:45;27.20;;;20.40;;
1569;SDS011;778;50.120;8.698;2022-11-20T10:27:32;30.43;;;21.30;;
1569;SDS011;778;50.120;8.698;2022-11-20T10:30:24;28.00;;;20.60;;
1569;SDS011;778;50.120;8.698;2022-11-20T10:32:54;26.27;;;20.70;;
1569;SDS011;778;50.120;8.698;2022-11-20T10:35:32;31.83;;;22.03;;
1569;SDS011;778;50.120;8.698;2022-11-20T10:38:07;32.90;;;21.63;;
1569;SDS011;778;50.120;8.698;2022-11-20T10:40:43;29.77;;;21.63;;
1569;SDS011;778;50.120;8.698;2022-11-20T10:43:19;25.50;;;19.73;;
1569;SDS011;778;50.120;8.698;2022-11-20T10:45:55;30.53;;;22.17;;
1569;SDS011;778;50.120;8.698;2022-11-20T10:48:28;32.10;;;23.80;;
1569;SDS011;778;50.120;8.698;2022-11-20T10:51:03;29.70;;;21.03;;
1569;SDS011;778;50.120;8.698;2022-11-20T10:53:43;31.13;;;21.07;;
1569;SDS011;778;50.120;8.698;2022-11-20T10:56:28;34.93;;;21.67;;
1569;SDS011;778;50.120;8.698;2022-11-20T10:59:15;31.63;;;22.50;;
1569;SDS011;778;50.120;8.698;2022-11-20T11:02:16;31.43;;;21.73;;
1569;SDS011;778;50.120;8.698;2022-11-20T11:04:47;29.40;;;21.57;;
1569;SDS011;778;50.120;8.698;2022-11-20T11:07:19;28.93;;;19.60;;
1569;SDS011;778;50.120;8.698;2022-11-20T11:09:52;35.80;;;21.80;;
1569;SDS011;778;50.120;8.698;2022-11-20T11:12:23;29.33;;;21.13;;
1569;SDS011;778;50.120;8.698;2022-11-20T11:14:55;31.00;;;22.27;;
1569;SDS011;778;50.120;8.698;2022-11-20T11:17:26;33.70;;;23.40;;
1569;SDS011;778;50.120;8.698;2022-11-20T11:20:00;30.83;;;22.40;;
1569;SDS011;778;50.120;8.698;2022-11-20T11:22:42;30.67;;;22.17;;
1569;SDS011;778;50.120;8.698;2022-11-20T11:25:24;33.67;;;23.00;;
1569;SDS011;778;50.120;8.698;2022-11-20T11:27:56;34.10;;;23.03;;
1569;SDS011;778;50.120;8.698;2022-11-20T11:30:28;35.43;;;22.10;;
1569;SDS011;778;50.120;8.698;2022-11-20T11:33:09;35.80;;;23.47;;
1569;SDS011;778;50.120;8.698;2022-11-20T11:35:44;31.70;;;23.40;;
1569;SDS011;778;50.120;8.698;2022-11-20T11:38:19;32.60;;;22.63;;
1569;SDS011;778;50.120;8.698;2022-11-20T11:40:52;36.00;;;23.87;;
1569;SDS011;778;50.120;8.698;2022-11-20T11:43:24;39.53;;;24.83;;
1569;SDS011;778;50.120;8.698;2022-11-20T11:46:25;36.30;;;24.00;;
1569;SDS011;778;50.120;8.698;2022-11-20T11:48:59;32.87;;;23.00;;
1569;SDS011;778;50.120;8.698;2022-11-20T11:51:32;38.03;;;24.60;;
1569;SDS011;778;50.120;8.698;2022-11-20T11:54:10;32.97;;;22.87;;
1569;SDS011;778;50.120;8.698;2022-11-20T11:56:45;35.90;;;24.13;;
1569;SDS011;778;50.120;8.698;2022-11-20T11:59:16;36.17;;;24.80;;
1569;SDS011;778;50.120;8.698;2022-11-20T12:01:57;38.20;;;26.00;;
1569;SDS011;778;50.120;8.698;2022-11-20T12:04:37;36.80;;;24.73;;
1569;SDS011;778;50.120;8.698;2022-11-20T12:07:12;39.13;;;25.20;;
1569;SDS011;778;50.120;8.698;2022-11-20T12:10:12;36.73;;;23.80;;
1569;SDS011;778;50.120;8.698;2022-11-20T12:12:48;42.00;;;26.40;;
1569;SDS011;778;50.120;8.698;2022-11-20T12:15:28;37.30;;;24.77;;
1569;SDS011;778;50.120;8.698;2022-11-20T12:18:01;35.63;;;23.60;;
1569;SDS011;778;50.120;8.698;2022-11-20T12:20:38;29.50;;;21.50;;
1569;SDS011;778;50.120;8.698;2022-11-20T12:23:16;30.27;;;22.90;;
1569;SDS011;778;50.120;8.698;2022-11-20T12:25:52;33.80;;;21.60;;
1569;SDS011;778;50.120;8.698;2022-11-20T12:28:28;30.13;;;20.80;;
1569;SDS011;778;50.120;8.698;2022-11-20T12:31:30;29.43;;;21.80;;
1569;SDS011;778;50.120;8.698;2022-11-20T12:34:20;26.40;;;19.93;;
1569;SDS011;778;50.120;8.698;2022-11-20T12:37:15;35.37;;;22.90;;
1569;SDS011;778;50.120;8.698;2022-11-20T12:39:58;33.67;;;22.47;;
1569;SDS011;778;50.120;8.698;2022-11-20T12:42:48;27.40;;;19.77;;
1569;SDS011;778;50.120;8.698;2022-11-20T12:45:55;26.10;;;19.83;;
1569;SDS011;778;50.120;8.698;2022-11-20T12:48:38;24.73;;;18.60;;
1569;SDS011;778;50.120;8.698;2022-11-20T12:51:27;30.37;;;19.30;;
1569;SDS011;778;50.120;8.698;2022-11-20T12:54:22;28.40;;;20.00;;
1569;SDS011;778;50.120;8.698;2022-11-20T12:57:15;27.87;;;20.50;;
1569;SDS011;778;50.120;8.698;2022-11-20T12:59:58;27.60;;;19.30;;
1569;SDS011;778;50.120;8.698;2022-11-20T13:02:44;24.87;;;18.20;;
1569;SDS011;778;50.120;8.698;2022-11-20T13:05:37;28.37;;;21.23;;
1569;SDS011;778;50.120;8.698;2022-11-20T13:08:17;28.57;;;21.23;;
1569;SDS011;778;50.120;8.698;2022-11-20T13:10:51;28.50;;;20.67;;
1569;SDS011;778;50.120;8.698;2022-11-20T13:13:30;34.00;;;23.30;;
1569;SDS011;778;50.120;8.698;2022-11-20T13:16:10;28.17;;;21.47;;
1569;SDS011;778;50.120;8.698;2022-11-20T13:18:44;28.20;;;22.03;;
1569;SDS011;778;50.120;8.698;2022-11-20T13:21:13;29.73;;;21.50;;
1569;SDS011;778;50.120;8.698;2022-11-20T13:23:45;31.10;;;22.70;;
1569;SDS011;778;50.120;8.698;2022-11-20T13:26:15;34.03;;;21.77;;
1569;SDS011;778;50.120;8.698;2022-11-20T13:28:59;31.07;;;22.80;;
1569;SDS011;778;50.120;8.698;2022-11-20T13:31:33;28.03;;;20.70;;
1569;SDS011;778;50.120;8.698;2022-11-20T13:34:05;31.90;;;21.60;;
1569;SDS011;778;50.120;8.698;2022-11-20T13:36:35;28.20;;;20.80;;
1569;SDS011;778;50.120;8.698;2022-11-20T13:39:04;29.63;;;21.90;;
1569;SDS011;778;50.120;8.698;2022-11-20T13:41:33;26.33;;;20.17;;
1569;SDS011;778;50.120;8.698;2022-11-20T13:44:06;27.80;;;19.50;;
1569;SDS011;778;50.120;8.698;2022-11-20T13:46:42;27.27;;;19.00;;
1569;SDS011;778;50.120;8.698;2022-11-20T13:49:16;28.10;;;19.47;;
1569;SDS011;778;50.120;8.698;2022-11-20T13:51:56;25.10;;;17.43;;
1569;SDS011;778;50.120;8.698;2022-11-20T13:54:47;26.90;;;19.23;;
1569;SDS011;778;50.120;8.698;2022-11-20T14:00:33;25.97;;;19.63;;
1569;SDS011;778;50.120;8.698;2022-11-20T14:03:15;32.70;;;21.43;;
1569;SDS011;778;50.120;8.698;2022-11-20T14:06:11;27.17;;;17.20;;
1569;SDS011;778;50.120;8.698;2022-11-20T14:08:46;26.10;;;18.10;;
1569;SDS011;778;50.120;8.698;2022-11-20T14:11:19;30.43;;;19.90;;
1569;SDS011;778;50.120;8.698;2022-11-20T14:13:58;26.13;;;18.80;;
1569;SDS011;778;50.120;8.698;2022-11-20T14:16:30;22.40;;;16.47;;
1569;SDS011;778;50.120;8.698;2022-11-20T14:19:17;22.23;;;17.20;;
1569;SDS011;778;50.120;8.698;2022-11-20T14:22:07;24.83;;;18.23;;
1569;SDS011;778;50.120;8.698;2022-11-20T14:24:42;23.30;;;17.07;;
1569;SDS011;778;50.120;8.698;2022-11-20T14:27:13;23.73;;;16.77;;
1569;SDS011;778;50.120;8.698;2022-11-20T14:29:45;22.50;;;16.87;;
1569;SDS011;778;50.120;8.698;2022-11-20T14:32:16;22.63;;;15.63;;
1569;SDS011;778;50.120;8.698;2022-11-20T14:34:48;21.57;;;15.83;;
1569;SDS011;778;50.120;8.698;2022-11-20T14:37:19;23.50;;;17.40;;
1569;SDS011;778;50.120;8.698;2022-11-20T14:39:52;22.80;;;16.73;;
1569;SDS011;778;50.120;8.698;2022-11-20T14:42:24;26.77;;;18.97;;
1569;SDS011;778;50.120;8.698;2022-11-20T14:44:55;22.13;;;17.83;;
1569;SDS011;778;50.120;8.698;2022-11-20T14:47:25;24.60;;;18.77;;
1569;SDS011;778;50.120;8.698;2022-11-20T14:49:57;23.87;;;17.10;;
1569;SDS011;778;50.120;8.698;2022-11-20T14:52:32;23.13;;;18.03;;
1569;SDS011;778;50.120;8.698;2022-11-20T14:55:01;23.00;;;17.47;;
1569;SDS011;778;50.120;8.698;2022-11-20T14:57:31;24.00;;;17.67;;
1569;SDS011;778;50.120;8.698;2022-11-20T15:00:05;23.43;;;17.17;;
1569;SDS011;778;50.120;8.698;2022-11-20T15:02:47;33.17;;;22.83;;
1569;SDS011;778;50.120;8.698;2022-11-20T15:05:17;24.80;;;18.77;;
1569;SDS011;778;50.120;8.698;2022-11-20T15:07:49;24.03;;;17.67;;
1569;SDS011;778;50.120;8.698;2022-11-20T15:10:21;24.20;;;17.83;;
1569;SDS011;778;50.120;8.698;2022-11-20T15:12:53;22.67;;;18.07;;
1569;SDS011;778;50.120;8.698;2022-11-20T15:15:24;24.60;;;17.87;;
1569;SDS011;778;50.120;8.698;2022-11-20T15:17:58;25.93;;;17.60;;
1569;SDS011;778;50.120;8.698;2022-11-20T15:20:28;25.67;;;17.60;;
1569;SDS011;778;50.120;8.698;2022-11-20T15:23:00;23.97;;;18.03;;
1569;SDS011;778;50.120;8.698;2022-11-20T15:25:28;23.87;;;16.63;;
1569;SDS011;778;50.120;8.698;2022-11-20T15:27:58;24.53;;;18.27;;
1569;SDS011;778;50.120;8.698;2022-11-20T15:30:26;24.37;;;17.87;;
1569;SDS011;778;50.120;8.698;2022-11-20T15:32:55;25.17;;;18.23;;
1569;SDS011;778;50.120;8.698;2022-11-20T15:35:23;26.10;;;18.07;;
1569;SDS011;778;50.120;8.698;2022-11-20T15:37:53;23.70;;;18.37;;